createdAt,value
2023-05-10T00:03:30.353Z,2.40
2023-05-10T00:08:20.270Z,3.03
2023-05-10T00:13:10.469Z,2.97
2023-05-10T00:17:55.400Z,2.57
2023-05-10T00:22:42.654Z,3.20
2023-05-10T00:27:44.215Z,3.60
2023-05-10T00:33:05.211Z,2.43
2023-05-10T00:38:10.837Z,2.80
2023-05-10T00:42:57.385Z,3.23
2023-05-10T00:47:47.538Z,3.03
2023-05-10T00:52:33.912Z,3.37
2023-05-10T00:57:38.127Z,4.30
2023-05-10T01:02:24.715Z,2.30
2023-05-10T01:07:13.232Z,2.50
2023-05-10T01:12:02.699Z,2.17
2023-05-10T01:17:07.097Z,2.33
2023-05-10T01:22:13.573Z,5.20
2023-05-10T01:27:32.353Z,3.17
2023-05-10T01:32:36.714Z,2.13
2023-05-10T01:37:38.586Z,2.27
2023-05-10T01:42:28.708Z,2.20
2023-05-10T01:47:18.579Z,2.10
2023-05-10T01:52:16.278Z,2.77
2023-05-10T01:57:08.673Z,2.20
2023-05-10T02:01:53.503Z,2.70
2023-05-10T02:06:54.668Z,2.00
2023-05-10T02:11:51.288Z,2.77
2023-05-10T02:16:36.455Z,2.47
2023-05-10T02:21:23.608Z,2.50
2023-05-10T02:26:08.601Z,2.43
2023-05-10T02:31:02.291Z,2.30
2023-05-10T02:35:45.959Z,3.63
2023-05-10T02:40:33.992Z,2.27
2023-05-10T02:45:39.882Z,2.10
2023-05-10T02:50:29.648Z,2.87
2023-05-10T02:55:17.254Z,3.57
2023-05-10T03:00:01.446Z,2.60
2023-05-10T03:04:49.623Z,2.40
2023-05-10T03:09:39.465Z,3.73
2023-05-10T03:15:18.758Z,2.33
2023-05-10T03:20:35.485Z,3.73
2023-05-10T03:25:23.131Z,2.30
2023-05-10T03:30:15.306Z,2.30
2023-05-10T03:35:01.363Z,2.80
2023-05-10T03:39:47.287Z,2.47
2023-05-10T03:44:34.321Z,3.97
2023-05-10T03:49:24.216Z,2.43
2023-05-10T03:54:10.809Z,3.33
2023-05-10T03:58:56.402Z,3.17
2023-05-10T04:03:48.830Z,2.90
2023-05-10T04:08:34.754Z,2.57
2023-05-10T04:13:24.323Z,2.00
2023-05-10T04:18:11.149Z,2.50
2023-05-10T04:22:58.355Z,2.10
2023-05-10T04:27:49.031Z,3.60
2023-05-10T04:32:34.179Z,2.20
2023-05-10T04:37:58.759Z,3.00
2023-05-10T04:42:46.930Z,2.13
2023-05-10T04:47:30.682Z,2.10
2023-05-10T04:52:21.745Z,2.60
2023-05-10T04:57:05.303Z,4.23
2023-05-10T05:02:15.953Z,3.63
2023-05-10T05:07:14.785Z,2.10
2023-05-10T05:12:04.035Z,2.50
2023-05-10T05:16:53.639Z,3.10
2023-05-10T05:21:42.906Z,2.00
2023-05-10T05:26:38.495Z,2.07
2023-05-10T05:31:31.700Z,2.60
2023-05-10T05:36:18.205Z,3.33
2023-05-10T05:41:10.056Z,2.27
2023-05-10T05:45:56.393Z,2.07
2023-05-10T05:50:42.872Z,2.07
2023-05-10T05:55:59.007Z,2.43
2023-05-10T06:00:52.972Z,2.23
2023-05-10T06:05:37.709Z,2.07
2023-05-10T06:10:38.928Z,2.00
2023-05-10T06:15:31.420Z,1.60
2023-05-10T06:20:20.722Z,1.63
2023-05-10T06:25:06.861Z,3.17
2023-05-10T06:30:02.148Z,2.40
2023-05-10T06:34:56.754Z,2.80
2023-05-10T06:39:49.565Z,2.30
2023-05-10T06:44:33.014Z,2.40
2023-05-10T06:49:42.456Z,2.30
2023-05-10T06:54:26.408Z,2.20
2023-05-10T06:59:14.558Z,2.60
2023-05-10T07:04:06.311Z,2.40
2023-05-10T07:08:49.749Z,2.03
2023-05-10T07:13:40.757Z,2.50
2023-05-10T07:23:47.009Z,3.17
2023-05-10T07:28:32.674Z,2.00
2023-05-10T07:33:22.120Z,2.40
2023-05-10T07:38:12.041Z,2.30
2023-05-10T07:42:57.380Z,1.67
2023-05-10T07:47:44.931Z,3.37
2023-05-10T07:52:32.864Z,2.77
2023-05-10T07:57:22.612Z,2.27
2023-05-10T08:02:29.167Z,3.37
2023-05-10T08:07:13.277Z,1.83
2023-05-10T08:12:02.887Z,5.27
2023-05-10T08:16:49.364Z,1.93
2023-05-10T08:21:36.799Z,1.77
2023-05-10T08:26:26.166Z,2.55
2023-05-10T08:31:20.342Z,4.57
2023-05-10T08:36:23.069Z,2.63
2023-05-10T08:41:08.525Z,3.33
2023-05-10T08:45:56.576Z,2.30
2023-05-10T08:50:45.012Z,2.22
2023-05-10T08:55:30.251Z,3.38
2023-05-10T09:00:36.925Z,4.45
2023-05-10T09:05:23.065Z,3.03
2023-05-10T09:10:11.190Z,5.13
2023-05-10T09:14:57.909Z,2.85
2023-05-10T09:19:45.357Z,2.88
2023-05-10T09:24:52.413Z,1.90
2023-05-10T09:29:42.704Z,3.42
2023-05-10T09:34:41.456Z,2.10
2023-05-10T09:39:59.142Z,4.60
2023-05-10T09:44:46.326Z,3.38
2023-05-10T09:49:36.910Z,4.95
2023-05-10T09:54:25.812Z,4.35
2023-05-10T09:59:14.803Z,3.22
2023-05-10T10:04:01.405Z,3.03
2023-05-10T10:13:54.937Z,2.83
2023-05-10T10:18:43.415Z,2.53
2023-05-10T10:23:48.354Z,3.42
2023-05-10T10:28:48.554Z,2.45
2023-05-10T10:33:53.757Z,3.50
2023-05-10T10:39:02.963Z,2.13
2023-05-10T10:43:46.879Z,2.78
2023-05-10T10:48:35.193Z,2.88
2023-05-10T10:53:22.786Z,3.15
2023-05-10T10:58:30.620Z,4.03
2023-05-10T11:03:26.532Z,2.53
2023-05-10T11:08:32.765Z,3.13
2023-05-10T11:13:51.662Z,2.50
2023-05-10T11:18:41.433Z,2.45
2023-05-10T11:23:35.117Z,2.53
2023-05-10T11:28:20.864Z,2.42
2023-05-10T11:33:05.795Z,2.60
2023-05-10T11:37:56.569Z,3.53
2023-05-10T11:42:44.430Z,3.90
2023-05-10T11:47:29.431Z,5.07
2023-05-10T11:52:22.421Z,3.30
2023-05-10T11:57:09.344Z,3.85
2023-05-10T12:01:53.155Z,3.28
2023-05-10T12:06:56.414Z,2.67
2023-05-10T12:12:24.000Z,2.55
2023-05-10T12:17:26.706Z,2.83
2023-05-10T12:22:30.715Z,3.10
2023-05-10T12:27:15.049Z,2.80
2023-05-10T12:32:05.396Z,5.63
2023-05-10T12:36:52.671Z,3.72
2023-05-10T12:41:43.636Z,3.75
2023-05-10T12:46:32.536Z,3.00
2023-05-10T12:51:28.133Z,3.63
2023-05-10T12:56:29.896Z,3.80
2023-05-10T13:01:22.193Z,3.20
2023-05-10T13:06:10.319Z,3.50
2023-05-10T13:10:56.521Z,3.10
2023-05-10T13:15:57.749Z,5.80
2023-05-10T13:20:48.033Z,4.47
2023-05-10T13:25:37.299Z,9.30
2023-05-10T13:30:26.852Z,3.23
2023-05-10T13:35:14.666Z,4.97
2023-05-10T13:40:05.149Z,4.05
2023-05-10T13:44:49.832Z,3.15
2023-05-10T13:49:38.095Z,4.55
2023-05-10T13:54:26.722Z,3.38
2023-05-10T13:59:16.718Z,3.80
2023-05-10T14:04:00.261Z,5.40
2023-05-10T14:08:48.719Z,4.80
2023-05-10T14:13:38.292Z,3.72
2023-05-10T14:18:24.782Z,3.30
2023-05-10T14:23:13.548Z,3.40
2023-05-10T14:28:00.424Z,3.53
2023-05-10T14:32:55.072Z,4.33
2023-05-10T14:37:38.752Z,5.77
2023-05-10T14:42:25.643Z,7.60
2023-05-10T14:47:16.027Z,4.67
2023-05-10T14:52:10.219Z,3.07
2023-05-10T14:57:06.433Z,2.13
2023-05-10T15:01:55.886Z,2.30
2023-05-10T15:06:41.965Z,4.33
2023-05-10T15:11:31.673Z,3.23
2023-05-10T15:16:21.346Z,3.60
2023-05-10T15:21:06.968Z,2.70
2023-05-10T15:25:56.886Z,5.03
2023-05-10T15:30:42.425Z,4.70
2023-05-10T15:35:32.790Z,3.23
2023-05-10T15:40:18.336Z,3.00
2023-05-10T15:45:08.330Z,4.17
2023-05-10T15:49:53.619Z,3.13
2023-05-10T15:54:44.370Z,3.47
2023-05-10T15:59:29.664Z,5.47
2023-05-10T16:04:16.377Z,2.80
2023-05-10T16:09:08.756Z,4.00
2023-05-10T16:13:54.249Z,4.73
2023-05-10T16:18:40.016Z,3.40
2023-05-10T16:23:32.179Z,3.40
2023-05-10T16:28:19.538Z,3.53
2023-05-10T16:33:09.119Z,5.83
2023-05-10T16:37:54.739Z,7.77
2023-05-10T16:42:41.296Z,4.10
2023-05-10T16:47:45.636Z,4.13
2023-05-10T16:52:36.069Z,3.83
2023-05-10T16:57:21.765Z,3.70
2023-05-10T17:02:11.366Z,6.27
2023-05-10T17:06:57.982Z,3.37
2023-05-10T17:11:44.553Z,3.37
2023-05-10T17:16:33.590Z,3.83
2023-05-10T17:21:21.804Z,2.63
2023-05-10T17:26:09.721Z,2.47
2023-05-10T17:31:02.573Z,3.83
2023-05-10T17:35:46.686Z,2.93
2023-05-10T17:40:35.336Z,2.77
2023-05-10T17:45:22.250Z,2.63
2023-05-10T17:50:14.885Z,3.00
2023-05-10T17:54:59.019Z,2.67
2023-05-10T17:59:42.606Z,2.10
2023-05-10T18:04:31.562Z,1.83
2023-05-10T18:09:24.271Z,2.27
2023-05-10T18:14:09.543Z,2.40
2023-05-10T18:18:59.308Z,1.60
2023-05-10T18:23:46.995Z,1.80
2023-05-10T18:28:37.128Z,2.87
2023-05-10T18:33:22.506Z,2.83
2023-05-10T18:38:08.011Z,2.13
2023-05-10T18:42:59.099Z,2.60
2023-05-10T18:47:46.223Z,1.70
2023-05-10T18:52:32.581Z,1.97
2023-05-10T18:57:21.261Z,2.10
2023-05-10T19:02:13.914Z,3.57
2023-05-10T19:06:57.391Z,2.50
2023-05-10T19:11:44.880Z,2.73
2023-05-10T19:16:37.713Z,4.00
2023-05-10T19:21:22.631Z,2.40
2023-05-10T19:26:11.769Z,2.90
2023-05-10T19:30:55.360Z,2.80
2023-05-10T19:35:45.984Z,3.47
2023-05-10T19:40:37.996Z,3.33
2023-05-10T19:45:21.531Z,3.00
2023-05-10T19:50:12.397Z,3.33
2023-05-10T19:54:58.165Z,4.13
2023-05-10T19:59:46.338Z,5.43
2023-05-10T20:04:33.946Z,3.67
2023-05-10T20:09:24.429Z,2.83
2023-05-10T20:14:11.483Z,2.83
2023-05-10T20:18:58.568Z,3.00
2023-05-10T20:23:46.925Z,2.90
2023-05-10T20:28:36.631Z,3.53
2023-05-10T20:33:20.140Z,3.70
2023-05-10T20:38:12.638Z,3.47
2023-05-10T20:42:58.031Z,4.37
2023-05-10T20:47:47.470Z,3.80
2023-05-10T20:52:36.853Z,4.47
2023-05-10T20:57:21.743Z,3.83
2023-05-10T21:02:10.993Z,5.40
2023-05-10T21:07:00.124Z,4.10
2023-05-10T21:11:45.512Z,4.53
2023-05-10T21:16:37.912Z,4.23
2023-05-10T21:21:21.649Z,5.70
2023-05-10T21:26:09.592Z,5.10
2023-05-10T21:31:00.524Z,5.07
2023-05-10T21:36:16.174Z,5.20
2023-05-10T21:41:07.252Z,5.70
2023-05-10T21:45:56.561Z,5.43
2023-05-10T21:50:43.862Z,6.20
2023-05-10T21:55:31.917Z,6.60
2023-05-10T22:00:19.356Z,6.83
2023-05-10T22:05:06.540Z,6.03
2023-05-10T22:09:55.924Z,5.67
2023-05-10T22:14:43.635Z,6.47
2023-05-10T22:19:30.216Z,6.83
2023-05-10T22:24:17.536Z,7.33
2023-05-10T22:29:06.216Z,5.80
2023-05-10T22:33:54.044Z,7.17
2023-05-10T22:38:43.190Z,7.20
2023-05-10T22:43:30.334Z,7.93
2023-05-10T22:48:20.481Z,7.77
2023-05-10T22:53:06.702Z,7.63
2023-05-10T22:57:55.998Z,7.43
2023-05-10T23:02:42.283Z,6.90
2023-05-10T23:07:31.682Z,7.43
2023-05-10T23:12:19.897Z,6.70
2023-05-10T23:17:09.851Z,7.10
2023-05-10T23:21:55.180Z,7.10
2023-05-10T23:26:43.544Z,7.10
2023-05-10T23:31:30.937Z,6.30
2023-05-10T23:36:21.267Z,8.33
2023-05-10T23:41:07.047Z,7.40
2023-05-10T23:45:56.826Z,7.03
2023-05-10T23:50:45.738Z,7.53
2023-05-10T23:55:32.059Z,7.00
